Terminal Aerodrome Forecast
Issued by NWS

Home | Current Version | Previous Version | Text Only | Print | Product List | Glossary On
Versions: 1 2 3 4 5 6 7 8 9 10 11 12 13 14 15
000
FTPQ31 PGUM 251700
TAFPQ
TAF

PTKK 251725Z 2518/2618 08008KT P6SM VCSH SCT016 SCT040 BKN120
      TEMPO 2518/2522 11016KT 5SM SHRA SCT014 BKN025=

USA.gov is the U.S. government's official web portal to all federal, state and local government web resources and services.